sensor_id;sensor_type;location;lat;lon;timestamp;P1;durP1;ratioP1;P2;durP2;ratioP2
55455;SDS011;46961;52.836;6.376;2022-07-30T00:01:38;5.65;;;4.80;;
55455;SDS011;46961;52.836;6.376;2022-07-30T00:04:03;11.75;;;4.80;;
55455;SDS011;46961;52.836;6.376;2022-07-30T00:06:29;10.68;;;5.40;;
55455;SDS011;46961;52.836;6.376;2022-07-30T00:08:54;5.50;;;5.00;;
55455;SDS011;46961;52.836;6.376;2022-07-30T00:11:20;5.10;;;4.03;;
55455;SDS011;46961;52.836;6.376;2022-07-30T00:13:46;5.90;;;4.15;;
55455;SDS011;46961;52.836;6.376;2022-07-30T00:16:11;6.95;;;3.80;;
55455;SDS011;46961;52.836;6.376;2022-07-30T00:18:37;3.35;;;3.05;;
55455;SDS011;46961;52.836;6.376;2022-07-30T00:21:03;4.40;;;3.83;;
55455;SDS011;46961;52.836;6.376;2022-07-30T00:23:28;3.97;;;3.58;;
55455;SDS011;46961;52.836;6.376;2022-07-30T00:25:54;5.40;;;3.60;;
55455;SDS011;46961;52.836;6.376;2022-07-30T00:28:19;5.43;;;3.78;;
55455;SDS011;46961;52.836;6.376;2022-07-30T00:30:45;4.38;;;4.07;;
55455;SDS011;46961;52.836;6.376;2022-07-30T00:33:10;3.55;;;3.17;;
55455;SDS011;46961;52.836;6.376;2022-07-30T00:35:35;6.40;;;4.25;;
55455;SDS011;46961;52.836;6.376;2022-07-30T00:38:01;5.28;;;4.78;;
55455;SDS011;46961;52.836;6.376;2022-07-30T00:40:26;7.13;;;4.95;;
55455;SDS011;46961;52.836;6.376;2022-07-30T00:42:52;5.53;;;4.82;;
55455;SDS011;46961;52.836;6.376;2022-07-30T00:45:17;3.78;;;3.40;;
55455;SDS011;46961;52.836;6.376;2022-07-30T00:47:43;4.30;;;3.70;;
55455;SDS011;46961;52.836;6.376;2022-07-30T00:50:10;3.65;;;3.35;;
55455;SDS011;46961;52.836;6.376;2022-07-30T00:52:37;3.92;;;3.55;;
55455;SDS011;46961;52.836;6.376;2022-07-30T00:55:06;6.63;;;3.70;;
55455;SDS011;46961;52.836;6.376;2022-07-30T00:57:37;9.73;;;4.50;;
55455;SDS011;46961;52.836;6.376;2022-07-30T01:00:08;5.15;;;3.20;;
55455;SDS011;46961;52.836;6.376;2022-07-30T01:02:36;5.78;;;3.85;;
55455;SDS011;46961;52.836;6.376;2022-07-30T01:05:02;4.65;;;4.25;;
55455;SDS011;46961;52.836;6.376;2022-07-30T01:07:28;6.03;;;5.10;;
55455;SDS011;46961;52.836;6.376;2022-07-30T01:09:53;7.13;;;4.00;;
55455;SDS011;46961;52.836;6.376;2022-07-30T01:12:19;6.03;;;4.05;;
55455;SDS011;46961;52.836;6.376;2022-07-30T01:14:48;8.77;;;5.53;;
55455;SDS011;46961;52.836;6.376;2022-07-30T01:17:14;8.07;;;4.88;;
55455;SDS011;46961;52.836;6.376;2022-07-30T01:19:40;12.50;;;7.00;;
55455;SDS011;46961;52.836;6.376;2022-07-30T01:27:49;6.05;;;4.93;;
55455;SDS011;46961;52.836;6.376;2022-07-30T01:30:20;5.50;;;4.88;;
55455;SDS011;46961;52.836;6.376;2022-07-30T01:32:49;9.52;;;5.38;;
55455;SDS011;46961;52.836;6.376;2022-07-30T01:35:17;7.13;;;4.90;;
55455;SDS011;46961;52.836;6.376;2022-07-30T01:37:45;8.23;;;6.07;;
55455;SDS011;46961;52.836;6.376;2022-07-30T01:40:13;7.95;;;5.50;;
55455;SDS011;46961;52.836;6.376;2022-07-30T01:42:39;9.77;;;5.90;;
55455;SDS011;46961;52.836;6.376;2022-07-30T01:45:06;7.20;;;5.78;;
55455;SDS011;46961;52.836;6.376;2022-07-30T01:47:34;8.25;;;6.75;;
55455;SDS011;46961;52.836;6.376;2022-07-30T01:50:03;7.05;;;5.80;;
55455;SDS011;46961;52.836;6.376;2022-07-30T01:52:33;7.45;;;5.38;;
55455;SDS011;46961;52.836;6.376;2022-07-30T01:55:02;6.97;;;5.65;;
55455;SDS011;46961;52.836;6.376;2022-07-30T01:57:29;7.63;;;4.78;;
55455;SDS011;46961;52.836;6.376;2022-07-30T01:59:57;6.75;;;5.05;;
55455;SDS011;46961;52.836;6.376;2022-07-30T02:02:29;5.80;;;5.28;;
55455;SDS011;46961;52.836;6.376;2022-07-30T02:04:55;8.98;;;4.97;;
55455;SDS011;46961;52.836;6.376;2022-07-30T02:07:26;6.22;;;5.43;;
55455;SDS011;46961;52.836;6.376;2022-07-30T02:12:52;15.18;;;8.07;;
55455;SDS011;46961;52.836;6.376;2022-07-30T02:18:00;10.52;;;8.68;;
55455;SDS011;46961;52.836;6.376;2022-07-30T02:20:28;46.45;;;8.40;;
55455;SDS011;46961;52.836;6.376;2022-07-30T02:23:05;10.32;;;8.75;;
55455;SDS011;46961;52.836;6.376;2022-07-30T02:25:34;15.15;;;8.40;;
55455;SDS011;46961;52.836;6.376;2022-07-30T02:28:07;17.45;;;9.90;;
55455;SDS011;46961;52.836;6.376;2022-07-30T02:30:36;10.77;;;9.65;;
55455;SDS011;46961;52.836;6.376;2022-07-30T02:33:08;12.23;;;9.68;;
55455;SDS011;46961;52.836;6.376;2022-07-30T02:35:36;23.20;;;8.70;;
55455;SDS011;46961;52.836;6.376;2022-07-30T02:38:03;11.07;;;9.45;;
55455;SDS011;46961;52.836;6.376;2022-07-30T02:40:30;22.58;;;10.32;;
55455;SDS011;46961;52.836;6.376;2022-07-30T02:42:56;10.52;;;9.52;;
55455;SDS011;46961;52.836;6.376;2022-07-30T02:45:23;10.73;;;9.45;;
55455;SDS011;46961;52.836;6.376;2022-07-30T02:47:59;21.33;;;10.27;;
55455;SDS011;46961;52.836;6.376;2022-07-30T02:50:27;29.52;;;10.38;;
55455;SDS011;46961;52.836;6.376;2022-07-30T02:52:54;10.18;;;9.27;;
55455;SDS011;46961;52.836;6.376;2022-07-30T02:55:21;9.55;;;8.65;;
55455;SDS011;46961;52.836;6.376;2022-07-30T02:57:51;19.45;;;9.23;;
55455;SDS011;46961;52.836;6.376;2022-07-30T03:00:18;9.68;;;8.55;;
55455;SDS011;46961;52.836;6.376;2022-07-30T03:02:45;9.02;;;8.13;;
55455;SDS011;46961;52.836;6.376;2022-07-30T03:05:12;8.50;;;7.80;;
55455;SDS011;46961;52.836;6.376;2022-07-30T03:07:38;17.77;;;9.15;;
55455;SDS011;46961;52.836;6.376;2022-07-30T03:10:05;11.68;;;8.30;;
55455;SDS011;46961;52.836;6.376;2022-07-30T03:12:32;13.18;;;8.73;;
55455;SDS011;46961;52.836;6.376;2022-07-30T03:15:00;8.55;;;7.82;;
55455;SDS011;46961;52.836;6.376;2022-07-30T03:17:27;8.85;;;7.55;;
55455;SDS011;46961;52.836;6.376;2022-07-30T03:19:56;11.65;;;8.32;;
55455;SDS011;46961;52.836;6.376;2022-07-30T03:22:24;13.27;;;8.23;;
55455;SDS011;46961;52.836;6.376;2022-07-30T03:24:51;11.77;;;9.25;;
55455;SDS011;46961;52.836;6.376;2022-07-30T03:27:18;9.25;;;8.35;;
55455;SDS011;46961;52.836;6.376;2022-07-30T03:29:46;9.57;;;8.60;;
55455;SDS011;46961;52.836;6.376;2022-07-30T03:32:13;26.90;;;8.95;;
55455;SDS011;46961;52.836;6.376;2022-07-30T03:34:39;12.73;;;9.52;;
55455;SDS011;46961;52.836;6.376;2022-07-30T03:37:06;10.38;;;9.27;;
55455;SDS011;46961;52.836;6.376;2022-07-30T03:39:33;12.30;;;9.80;;
55455;SDS011;46961;52.836;6.376;2022-07-30T03:42:00;10.77;;;9.65;;
55455;SDS011;46961;52.836;6.376;2022-07-30T03:44:27;14.45;;;10.60;;
55455;SDS011;46961;52.836;6.376;2022-07-30T03:46:54;23.95;;;10.60;;
55455;SDS011;46961;52.836;6.376;2022-07-30T03:49:21;12.55;;;9.63;;
55455;SDS011;46961;52.836;6.376;2022-07-30T03:51:47;11.60;;;10.50;;
55455;SDS011;46961;52.836;6.376;2022-07-30T03:54:14;13.63;;;10.23;;
55455;SDS011;46961;52.836;6.376;2022-07-30T03:56:40;28.00;;;10.85;;
55455;SDS011;46961;52.836;6.376;2022-07-30T03:59:06;20.55;;;10.40;;
55455;SDS011;46961;52.836;6.376;2022-07-30T04:01:32;27.73;;;10.13;;
55455;SDS011;46961;52.836;6.376;2022-07-30T04:04:04;12.35;;;11.10;;
55455;SDS011;46961;52.836;6.376;2022-07-30T04:06:31;13.68;;;10.57;;
55455;SDS011;46961;52.836;6.376;2022-07-30T04:08:56;15.07;;;10.18;;
55455;SDS011;46961;52.836;6.376;2022-07-30T04:11:22;13.68;;;11.20;;
55455;SDS011;46961;52.836;6.376;2022-07-30T04:13:47;12.98;;;11.38;;
55455;SDS011;46961;52.836;6.376;2022-07-30T04:16:15;11.15;;;10.05;;
55455;SDS011;46961;52.836;6.376;2022-07-30T04:18:50;11.82;;;10.05;;
55455;SDS011;46961;52.836;6.376;2022-07-30T04:21:19;11.85;;;10.45;;
55455;SDS011;46961;52.836;6.376;2022-07-30T04:23:47;10.15;;;9.25;;
55455;SDS011;46961;52.836;6.376;2022-07-30T04:26:15;9.65;;;8.75;;
55455;SDS011;46961;52.836;6.376;2022-07-30T04:28:41;11.05;;;9.98;;
55455;SDS011;46961;52.836;6.376;2022-07-30T04:31:07;11.10;;;9.93;;
55455;SDS011;46961;52.836;6.376;2022-07-30T04:33:35;9.95;;;8.95;;
55455;SDS011;46961;52.836;6.376;2022-07-30T04:36:05;10.23;;;9.23;;
55455;SDS011;46961;52.836;6.376;2022-07-30T04:38:33;11.27;;;8.90;;
55455;SDS011;46961;52.836;6.376;2022-07-30T04:40:59;10.27;;;9.27;;
55455;SDS011;46961;52.836;6.376;2022-07-30T04:43:25;11.77;;;9.55;;
55455;SDS011;46961;52.836;6.376;2022-07-30T04:45:50;9.88;;;8.68;;
55455;SDS011;46961;52.836;6.376;2022-07-30T04:48:16;8.32;;;7.57;;
55455;SDS011;46961;52.836;6.376;2022-07-30T04:50:42;12.73;;;9.30;;
55455;SDS011;46961;52.836;6.376;2022-07-30T04:53:10;11.50;;;9.20;;
55455;SDS011;46961;52.836;6.376;2022-07-30T04:55:37;12.68;;;9.57;;
55455;SDS011;46961;52.836;6.376;2022-07-30T04:58:06;13.25;;;10.05;;
55455;SDS011;46961;52.836;6.376;2022-07-30T05:00:33;13.25;;;10.50;;
55455;SDS011;46961;52.836;6.376;2022-07-30T05:03:00;11.48;;;10.38;;
55455;SDS011;46961;52.836;6.376;2022-07-30T05:05:26;12.43;;;9.40;;
55455;SDS011;46961;52.836;6.376;2022-07-30T05:07:56;41.83;;;11.38;;
55455;SDS011;46961;52.836;6.376;2022-07-30T05:10:22;11.70;;;10.05;;
55455;SDS011;46961;52.836;6.376;2022-07-30T05:12:47;14.25;;;11.07;;
55455;SDS011;46961;52.836;6.376;2022-07-30T05:15:12;22.48;;;10.10;;
55455;SDS011;46961;52.836;6.376;2022-07-30T05:17:38;15.18;;;11.65;;
55455;SDS011;46961;52.836;6.376;2022-07-30T05:20:04;16.42;;;11.80;;
55455;SDS011;46961;52.836;6.376;2022-07-30T05:22:29;17.80;;;11.18;;
55455;SDS011;46961;52.836;6.376;2022-07-30T05:24:58;13.07;;;11.68;;
55455;SDS011;46961;52.836;6.376;2022-07-30T05:27:23;16.88;;;12.60;;
55455;SDS011;46961;52.836;6.376;2022-07-30T05:29:49;21.50;;;12.90;;
55455;SDS011;46961;52.836;6.376;2022-07-30T05:32:14;16.55;;;12.75;;
55455;SDS011;46961;52.836;6.376;2022-07-30T05:34:40;19.23;;;13.77;;
55455;SDS011;46961;52.836;6.376;2022-07-30T05:37:05;22.13;;;14.27;;
55455;SDS011;46961;52.836;6.376;2022-07-30T05:39:31;15.35;;;12.63;;
55455;SDS011;46961;52.836;6.376;2022-07-30T05:41:56;15.90;;;12.50;;
55455;SDS011;46961;52.836;6.376;2022-07-30T05:44:21;25.10;;;13.25;;
55455;SDS011;46961;52.836;6.376;2022-07-30T05:46:47;17.48;;;12.80;;
55455;SDS011;46961;52.836;6.376;2022-07-30T05:49:13;19.13;;;14.20;;
55455;SDS011;46961;52.836;6.376;2022-07-30T05:51:39;20.88;;;12.52;;
55455;SDS011;46961;52.836;6.376;2022-07-30T05:54:05;17.77;;;12.07;;
55455;SDS011;46961;52.836;6.376;2022-07-30T05:56:30;21.05;;;12.80;;
55455;SDS011;46961;52.836;6.376;2022-07-30T05:58:56;14.18;;;12.13;;
55455;SDS011;46961;52.836;6.376;2022-07-30T06:01:21;18.75;;;12.27;;
55455;SDS011;46961;52.836;6.376;2022-07-30T06:03:47;16.30;;;11.68;;
55455;SDS011;46961;52.836;6.376;2022-07-30T06:06:12;16.65;;;11.63;;
55455;SDS011;46961;52.836;6.376;2022-07-30T06:08:37;15.25;;;12.75;;
55455;SDS011;46961;52.836;6.376;2022-07-30T06:11:03;17.48;;;13.20;;
55455;SDS011;46961;52.836;6.376;2022-07-30T06:13:29;18.52;;;12.90;;
55455;SDS011;46961;52.836;6.376;2022-07-30T06:15:54;19.90;;;13.55;;
55455;SDS011;46961;52.836;6.376;2022-07-30T06:18:19;17.27;;;13.00;;
55455;SDS011;46961;52.836;6.376;2022-07-30T06:20:45;14.52;;;12.93;;
55455;SDS011;46961;52.836;6.376;2022-07-30T06:23:10;22.70;;;14.32;;
55455;SDS011;46961;52.836;6.376;2022-07-30T06:25:36;17.05;;;13.32;;
55455;SDS011;46961;52.836;6.376;2022-07-30T06:28:02;15.13;;;12.48;;
55455;SDS011;46961;52.836;6.376;2022-07-30T06:30:27;19.88;;;13.93;;
55455;SDS011;46961;52.836;6.376;2022-07-30T06:32:53;14.98;;;13.07;;
55455;SDS011;46961;52.836;6.376;2022-07-30T06:35:19;20.35;;;13.15;;
55455;SDS011;46961;52.836;6.376;2022-07-30T06:37:44;17.77;;;13.07;;
55455;SDS011;46961;52.836;6.376;2022-07-30T06:40:10;16.27;;;14.02;;
55455;SDS011;46961;52.836;6.376;2022-07-30T06:42:36;20.92;;;13.90;;
55455;SDS011;46961;52.836;6.376;2022-07-30T06:45:01;17.00;;;13.65;;
55455;SDS011;46961;52.836;6.376;2022-07-30T06:47:26;16.63;;;11.98;;
55455;SDS011;46961;52.836;6.376;2022-07-30T06:49:55;17.02;;;12.18;;
55455;SDS011;46961;52.836;6.376;2022-07-30T06:52:21;17.05;;;13.18;;
55455;SDS011;46961;52.836;6.376;2022-07-30T06:54:47;14.05;;;11.27;;
55455;SDS011;46961;52.836;6.376;2022-07-30T06:57:13;17.40;;;12.82;;
55455;SDS011;46961;52.836;6.376;2022-07-30T06:59:39;17.60;;;12.25;;
55455;SDS011;46961;52.836;6.376;2022-07-30T07:02:04;18.52;;;10.57;;
55455;SDS011;46961;52.836;6.376;2022-07-30T07:04:30;15.80;;;11.38;;
55455;SDS011;46961;52.836;6.376;2022-07-30T07:06:56;16.63;;;10.43;;
55455;SDS011;46961;52.836;6.376;2022-07-30T07:09:22;15.95;;;10.93;;
55455;SDS011;46961;52.836;6.376;2022-07-30T07:11:47;16.88;;;10.95;;
55455;SDS011;46961;52.836;6.376;2022-07-30T07:14:13;16.83;;;9.82;;
55455;SDS011;46961;52.836;6.376;2022-07-30T07:16:38;13.88;;;8.82;;
55455;SDS011;46961;52.836;6.376;2022-07-30T07:19:04;13.75;;;8.30;;
55455;SDS011;46961;52.836;6.376;2022-07-30T07:21:29;17.73;;;8.63;;
55455;SDS011;46961;52.836;6.376;2022-07-30T07:23:54;13.88;;;7.90;;
55455;SDS011;46961;52.836;6.376;2022-07-30T07:26:20;14.20;;;7.05;;
55455;SDS011;46961;52.836;6.376;2022-07-30T07:28:45;17.38;;;8.73;;
55455;SDS011;46961;52.836;6.376;2022-07-30T07:31:11;9.88;;;7.20;;
55455;SDS011;46961;52.836;6.376;2022-07-30T07:33:36;11.45;;;7.63;;
55455;SDS011;46961;52.836;6.376;2022-07-30T07:36:05;15.43;;;7.80;;
55455;SDS011;46961;52.836;6.376;2022-07-30T07:38:30;15.77;;;7.25;;
55455;SDS011;46961;52.836;6.376;2022-07-30T07:40:56;12.35;;;7.07;;
55455;SDS011;46961;52.836;6.376;2022-07-30T07:43:22;13.18;;;6.43;;
55455;SDS011;46961;52.836;6.376;2022-07-30T07:45:49;11.75;;;6.97;;
55455;SDS011;46961;52.836;6.376;2022-07-30T07:48:15;16.35;;;6.47;;
55455;SDS011;46961;52.836;6.376;2022-07-30T07:50:42;13.13;;;6.18;;
55455;SDS011;46961;52.836;6.376;2022-07-30T07:53:07;9.70;;;5.95;;
55455;SDS011;46961;52.836;6.376;2022-07-30T07:55:33;9.23;;;5.78;;
55455;SDS011;46961;52.836;6.376;2022-07-30T07:57:58;9.07;;;5.18;;
55455;SDS011;46961;52.836;6.376;2022-07-30T08:00:24;10.52;;;6.15;;
55455;SDS011;46961;52.836;6.376;2022-07-30T08:02:49;6.32;;;4.70;;
55455;SDS011;46961;52.836;6.376;2022-07-30T08:05:15;10.50;;;5.25;;
55455;SDS011;46961;52.836;6.376;2022-07-30T08:07:41;10.38;;;4.72;;
55455;SDS011;46961;52.836;6.376;2022-07-30T08:10:08;12.35;;;4.53;;
55455;SDS011;46961;52.836;6.376;2022-07-30T08:12:35;9.88;;;4.43;;
55455;SDS011;46961;52.836;6.376;2022-07-30T08:15:01;12.10;;;5.80;;
55455;SDS011;46961;52.836;6.376;2022-07-30T08:17:27;11.32;;;4.40;;
55455;SDS011;46961;52.836;6.376;2022-07-30T08:19:56;6.93;;;4.20;;
55455;SDS011;46961;52.836;6.376;2022-07-30T08:22:23;5.55;;;3.90;;
55455;SDS011;46961;52.836;6.376;2022-07-30T08:24:48;10.95;;;3.88;;
55455;SDS011;46961;52.836;6.376;2022-07-30T08:27:13;6.95;;;3.80;;
55455;SDS011;46961;52.836;6.376;2022-07-30T08:29:39;7.57;;;4.32;;
55455;SDS011;46961;52.836;6.376;2022-07-30T08:32:04;7.10;;;4.13;;
55455;SDS011;46961;52.836;6.376;2022-07-30T08:34:30;8.88;;;3.67;;
55455;SDS011;46961;52.836;6.376;2022-07-30T08:36:55;8.27;;;3.53;;
55455;SDS011;46961;52.836;6.376;2022-07-30T08:39:21;7.50;;;3.80;;
55455;SDS011;46961;52.836;6.376;2022-07-30T08:41:46;12.23;;;4.15;;
55455;SDS011;46961;52.836;6.376;2022-07-30T08:44:13;9.35;;;3.42;;
55455;SDS011;46961;52.836;6.376;2022-07-30T08:46:42;6.93;;;3.45;;
55455;SDS011;46961;52.836;6.376;2022-07-30T08:49:10;6.10;;;2.90;;
55455;SDS011;46961;52.836;6.376;2022-07-30T08:51:36;6.07;;;3.80;;
55455;SDS011;46961;52.836;6.376;2022-07-30T08:54:03;8.10;;;4.38;;
55455;SDS011;46961;52.836;6.376;2022-07-30T08:56:30;4.40;;;3.25;;
55455;SDS011;46961;52.836;6.376;2022-07-30T08:58:56;9.27;;;3.90;;
55455;SDS011;46961;52.836;6.376;2022-07-30T09:01:23;7.07;;;2.92;;
55455;SDS011;46961;52.836;6.376;2022-07-30T09:03:48;6.95;;;3.08;;
55455;SDS011;46961;52.836;6.376;2022-07-30T09:06:14;7.70;;;3.40;;
55455;SDS011;46961;52.836;6.376;2022-07-30T09:08:39;4.30;;;2.55;;
55455;SDS011;46961;52.836;6.376;2022-07-30T09:11:05;10.13;;;2.90;;
55455;SDS011;46961;52.836;6.376;2022-07-30T09:13:34;4.07;;;2.60;;
55455;SDS011;46961;52.836;6.376;2022-07-30T09:16:02;3.58;;;2.80;;
55455;SDS011;46961;52.836;6.376;2022-07-30T09:21:19;14.38;;;3.33;;
55455;SDS011;46961;52.836;6.376;2022-07-30T09:23:59;5.05;;;3.63;;
55455;SDS011;46961;52.836;6.376;2022-07-30T09:26:26;9.45;;;3.55;;
55455;SDS011;46961;52.836;6.376;2022-07-30T09:28:53;8.35;;;3.30;;
55455;SDS011;46961;52.836;6.376;2022-07-30T09:31:18;5.45;;;3.30;;
55455;SDS011;46961;52.836;6.376;2022-07-30T09:33:45;5.40;;;3.88;;
55455;SDS011;46961;52.836;6.376;2022-07-30T09:36:12;8.15;;;2.95;;
55455;SDS011;46961;52.836;6.376;2022-07-30T09:38:46;8.30;;;4.22;;
55455;SDS011;46961;52.836;6.376;2022-07-30T09:41:17;7.53;;;3.22;;
55455;SDS011;46961;52.836;6.376;2022-07-30T09:46:16;7.07;;;3.05;;
55455;SDS011;46961;52.836;6.376;2022-07-30T09:48:42;11.60;;;3.33;;
55455;SDS011;46961;52.836;6.376;2022-07-30T09:51:10;7.05;;;3.40;;
55455;SDS011;46961;52.836;6.376;2022-07-30T09:53:44;6.20;;;2.83;;
55455;SDS011;46961;52.836;6.376;2022-07-30T09:56:25;11.63;;;3.00;;
55455;SDS011;46961;52.836;6.376;2022-07-30T09:58:52;3.20;;;2.10;;
55455;SDS011;46961;52.836;6.376;2022-07-30T10:01:18;7.18;;;2.78;;
55455;SDS011;46961;52.836;6.376;2022-07-30T10:03:43;7.30;;;2.97;;
55455;SDS011;46961;52.836;6.376;2022-07-30T10:06:09;11.88;;;3.88;;
55455;SDS011;46961;52.836;6.376;2022-07-30T10:08:45;3.45;;;2.78;;
55455;SDS011;46961;52.836;6.376;2022-07-30T10:11:18;8.15;;;2.40;;
55455;SDS011;46961;52.836;6.376;2022-07-30T10:13:46;9.40;;;3.00;;
55455;SDS011;46961;52.836;6.376;2022-07-30T10:16:14;6.70;;;3.45;;
55455;SDS011;46961;52.836;6.376;2022-07-30T10:18:43;6.07;;;3.10;;
55455;SDS011;46961;52.836;6.376;2022-07-30T10:21:08;9.63;;;3.20;;
55455;SDS011;46961;52.836;6.376;2022-07-30T10:23:35;6.90;;;2.33;;
55455;SDS011;46961;52.836;6.376;2022-07-30T10:26:02;7.80;;;2.40;;
55455;SDS011;46961;52.836;6.376;2022-07-30T10:28:29;8.55;;;2.42;;
55455;SDS011;46961;52.836;6.376;2022-07-30T10:30:56;6.55;;;2.10;;
55455;SDS011;46961;52.836;6.376;2022-07-30T10:33:24;4.97;;;1.80;;
55455;SDS011;46961;52.836;6.376;2022-07-30T10:35:51;12.82;;;3.80;;
55455;SDS011;46961;52.836;6.376;2022-07-30T10:38:17;4.50;;;3.30;;
55455;SDS011;46961;52.836;6.376;2022-07-30T10:40:51;5.20;;;2.30;;
55455;SDS011;46961;52.836;6.376;2022-07-30T10:49:23;4.88;;;2.40;;
55455;SDS011;46961;52.836;6.376;2022-07-30T10:51:50;5.28;;;1.92;;
55455;SDS011;46961;52.836;6.376;2022-07-30T11:02:14;5.40;;;2.42;;
55455;SDS011;46961;52.836;6.376;2022-07-30T11:04:40;8.80;;;2.65;;
55455;SDS011;46961;52.836;6.376;2022-07-30T11:09:48;4.10;;;2.05;;
55455;SDS011;46961;52.836;6.376;2022-07-30T11:12:14;2.72;;;1.75;;
55455;SDS011;46961;52.836;6.376;2022-07-30T11:14:59;4.80;;;1.98;;
55455;SDS011;46961;52.836;6.376;2022-07-30T11:17:25;2.42;;;1.95;;
55455;SDS011;46961;52.836;6.376;2022-07-30T11:22:32;4.50;;;1.90;;
55455;SDS011;46961;52.836;6.376;2022-07-30T11:46:12;3.72;;;1.52;;
55455;SDS011;46961;52.836;6.376;2022-07-30T11:49:03;8.45;;;1.92;;
55455;SDS011;46961;52.836;6.376;2022-07-30T11:51:38;6.68;;;1.90;;
55455;SDS011;46961;52.836;6.376;2022-07-30T11:54:06;3.95;;;2.03;;
55455;SDS011;46961;52.836;6.376;2022-07-30T11:56:36;6.32;;;2.97;;
55455;SDS011;46961;52.836;6.376;2022-07-30T11:59:12;3.50;;;1.88;;
55455;SDS011;46961;52.836;6.376;2022-07-30T12:01:37;4.35;;;1.70;;
55455;SDS011;46961;52.836;6.376;2022-07-30T12:04:03;3.97;;;2.13;;
55455;SDS011;46961;52.836;6.376;2022-07-30T12:06:30;4.65;;;2.30;;
55455;SDS011;46961;52.836;6.376;2022-07-30T12:08:56;5.72;;;2.03;;
55455;SDS011;46961;52.836;6.376;2022-07-30T12:11:23;3.97;;;2.10;;
55455;SDS011;46961;52.836;6.376;2022-07-30T12:13:58;2.65;;;1.70;;
55455;SDS011;46961;52.836;6.376;2022-07-30T12:16:26;7.60;;;1.80;;
55455;SDS011;46961;52.836;6.376;2022-07-30T12:18:52;6.10;;;2.00;;
55455;SDS011;46961;52.836;6.376;2022-07-30T12:21:18;4.80;;;2.13;;
55455;SDS011;46961;52.836;6.376;2022-07-30T12:24:04;5.43;;;1.60;;
55455;SDS011;46961;52.836;6.376;2022-07-30T12:26:36;2.97;;;1.30;;
55455;SDS011;46961;52.836;6.376;2022-07-30T12:29:04;2.97;;;1.38;;
55455;SDS011;46961;52.836;6.376;2022-07-30T12:31:32;5.65;;;2.20;;
55455;SDS011;46961;52.836;6.376;2022-07-30T12:33:58;3.47;;;1.60;;
55455;SDS011;46961;52.836;6.376;2022-07-30T12:36:28;4.32;;;2.15;;
55455;SDS011;46961;52.836;6.376;2022-07-30T12:38:56;1.77;;;1.20;;
55455;SDS011;46961;52.836;6.376;2022-07-30T12:41:22;6.22;;;1.45;;
55455;SDS011;46961;52.836;6.376;2022-07-30T12:44:05;5.70;;;1.88;;
55455;SDS011;46961;52.836;6.376;2022-07-30T12:46:35;4.13;;;1.30;;
55455;SDS011;46961;52.836;6.376;2022-07-30T12:49:03;2.88;;;1.10;;
55455;SDS011;46961;52.836;6.376;2022-07-30T12:51:31;1.77;;;1.65;;
55455;SDS011;46961;52.836;6.376;2022-07-30T12:54:14;2.45;;;1.50;;
55455;SDS011;46961;52.836;6.376;2022-07-30T12:56:54;3.50;;;1.35;;
55455;SDS011;46961;52.836;6.376;2022-07-30T12:59:30;1.75;;;1.17;;
55455;SDS011;46961;52.836;6.376;2022-07-30T13:01:57;1.15;;;0.95;;
55455;SDS011;46961;52.836;6.376;2022-07-30T13:04:26;1.88;;;1.38;;
55455;SDS011;46961;52.836;6.376;2022-07-30T13:07:08;2.78;;;1.10;;
55455;SDS011;46961;52.836;6.376;2022-07-30T13:09:35;2.40;;;1.48;;
55455;SDS011;46961;52.836;6.376;2022-07-30T13:12:01;4.80;;;1.38;;
55455;SDS011;46961;52.836;6.376;2022-07-30T13:14:27;2.22;;;1.70;;
55455;SDS011;46961;52.836;6.376;2022-07-30T13:16:53;2.28;;;1.23;;
55455;SDS011;46961;52.836;6.376;2022-07-30T13:19:20;2.80;;;1.35;;
55455;SDS011;46961;52.836;6.376;2022-07-30T13:21:46;1.80;;;1.38;;
55455;SDS011;46961;52.836;6.376;2022-07-30T13:24:12;3.50;;;1.13;;
55455;SDS011;46961;52.836;6.376;2022-07-30T13:26:38;5.68;;;1.48;;
55455;SDS011;46961;52.836;6.376;2022-07-30T13:29:03;1.10;;;1.00;;
55455;SDS011;46961;52.836;6.376;2022-07-30T13:31:29;2.72;;;1.60;;
55455;SDS011;46961;52.836;6.376;2022-07-30T13:33:55;4.45;;;1.00;;
55455;SDS011;46961;52.836;6.376;2022-07-30T13:36:20;2.30;;;1.00;;
55455;SDS011;46961;52.836;6.376;2022-07-30T13:38:46;2.10;;;1.00;;
55455;SDS011;46961;52.836;6.376;2022-07-30T13:41:11;3.55;;;1.30;;
55455;SDS011;46961;52.836;6.376;2022-07-30T13:43:37;3.83;;;1.20;;
55455;SDS011;46961;52.836;6.376;2022-07-30T13:46:03;2.95;;;1.33;;
55455;SDS011;46961;52.836;6.376;2022-07-30T13:48:30;2.50;;;1.10;;
55455;SDS011;46961;52.836;6.376;2022-07-30T13:50:57;6.15;;;1.20;;
55455;SDS011;46961;52.836;6.376;2022-07-30T13:53:24;3.45;;;1.20;;
55455;SDS011;46961;52.836;6.376;2022-07-30T13:55:49;1.35;;;1.00;;
55455;SDS011;46961;52.836;6.376;2022-07-30T13:58:15;1.98;;;1.25;;
55455;SDS011;46961;52.836;6.376;2022-07-30T14:00:40;2.22;;;1.08;;
55455;SDS011;46961;52.836;6.376;2022-07-30T14:03:09;1.92;;;1.10;;
55455;SDS011;46961;52.836;6.376;2022-07-30T14:05:35;1.00;;;1.00;;
55455;SDS011;46961;52.836;6.376;2022-07-30T14:08:03;3.63;;;1.02;;
55455;SDS011;46961;52.836;6.376;2022-07-30T14:10:29;2.92;;;1.00;;
55455;SDS011;46961;52.836;6.376;2022-07-30T14:12:55;2.20;;;1.02;;
55455;SDS011;46961;52.836;6.376;2022-07-30T14:15:22;2.05;;;0.60;;
55455;SDS011;46961;52.836;6.376;2022-07-30T14:17:49;2.15;;;1.00;;
55455;SDS011;46961;52.836;6.376;2022-07-30T14:20:15;3.38;;;1.55;;
55455;SDS011;46961;52.836;6.376;2022-07-30T14:22:40;3.53;;;1.67;;
55455;SDS011;46961;52.836;6.376;2022-07-30T14:25:06;2.67;;;1.20;;
55455;SDS011;46961;52.836;6.376;2022-07-30T14:27:35;1.67;;;0.98;;
55455;SDS011;46961;52.836;6.376;2022-07-30T14:30:02;8.18;;;1.42;;
55455;SDS011;46961;52.836;6.376;2022-07-30T14:32:29;2.97;;;0.90;;
55455;SDS011;46961;52.836;6.376;2022-07-30T14:34:55;1.10;;;0.93;;
55455;SDS011;46961;52.836;6.376;2022-07-30T14:37:20;1.50;;;1.10;;
55455;SDS011;46961;52.836;6.376;2022-07-30T14:39:45;1.05;;;0.95;;
55455;SDS011;46961;52.836;6.376;2022-07-30T14:42:11;2.35;;;0.90;;
55455;SDS011;46961;52.836;6.376;2022-07-30T14:44:36;1.33;;;0.70;;
55455;SDS011;46961;52.836;6.376;2022-07-30T14:47:02;6.75;;;1.38;;
55455;SDS011;46961;52.836;6.376;2022-07-30T14:49:28;1.00;;;0.77;;
55455;SDS011;46961;52.836;6.376;2022-07-30T14:51:53;1.05;;;1.00;;
55455;SDS011;46961;52.836;6.376;2022-07-30T14:54:19;2.20;;;0.70;;
55455;SDS011;46961;52.836;6.376;2022-07-30T14:56:44;1.10;;;0.93;;
55455;SDS011;46961;52.836;6.376;2022-07-30T14:59:10;1.17;;;0.90;;
55455;SDS011;46961;52.836;6.376;2022-07-30T15:01:36;3.50;;;1.00;;
55455;SDS011;46961;52.836;6.376;2022-07-30T15:04:02;1.98;;;1.17;;
55455;SDS011;46961;52.836;6.376;2022-07-30T15:06:28;1.77;;;1.10;;
55455;SDS011;46961;52.836;6.376;2022-07-30T15:08:53;4.03;;;1.05;;
55455;SDS011;46961;52.836;6.376;2022-07-30T15:11:19;1.85;;;1.00;;
55455;SDS011;46961;52.836;6.376;2022-07-30T15:13:44;1.90;;;1.00;;
55455;SDS011;46961;52.836;6.376;2022-07-30T15:16:10;1.05;;;0.82;;
55455;SDS011;46961;52.836;6.376;2022-07-30T15:18:35;1.77;;;1.20;;
55455;SDS011;46961;52.836;6.376;2022-07-30T15:21:01;1.42;;;1.00;;
55455;SDS011;46961;52.836;6.376;2022-07-30T15:23:27;1.48;;;0.85;;
55455;SDS011;46961;52.836;6.376;2022-07-30T15:25:52;2.30;;;1.48;;
55455;SDS011;46961;52.836;6.376;2022-07-30T15:28:17;1.25;;;1.02;;
55455;SDS011;46961;52.836;6.376;2022-07-30T15:30:43;1.25;;;0.90;;
55455;SDS011;46961;52.836;6.376;2022-07-30T15:33:09;1.05;;;0.90;;
55455;SDS011;46961;52.836;6.376;2022-07-30T15:35:34;4.78;;;1.13;;
55455;SDS011;46961;52.836;6.376;2022-07-30T15:38:00;1.42;;;0.80;;